sensor_id;sensor_type;location;lat;lon;timestamp;temperature;humidity
20866;DHT22;10593;48.398;10.698;2022-07-04T00:00:36;25.20;47.70
20866;DHT22;10593;48.398;10.698;2022-07-04T00:03:01;25.20;47.90
20866;DHT22;10593;48.398;10.698;2022-07-04T00:05:27;25.20;47.60
20866;DHT22;10593;48.398;10.698;2022-07-04T00:07:52;25.20;47.50
20866;DHT22;10593;48.398;10.698;2022-07-04T00:10:19;25.20;47.50
20866;DHT22;10593;48.398;10.698;2022-07-04T00:12:49;25.20;47.70
20866;DHT22;10593;48.398;10.698;2022-07-04T00:15:15;25.20;47.50
20866;DHT22;10593;48.398;10.698;2022-07-04T00:17:41;25.20;47.50
20866;DHT22;10593;48.398;10.698;2022-07-04T00:20:08;25.20;47.60
20866;DHT22;10593;48.398;10.698;2022-07-04T00:22:35;25.20;48.30
20866;DHT22;10593;48.398;10.698;2022-07-04T00:25:01;25.30;47.70
20866;DHT22;10593;48.398;10.698;2022-07-04T00:27:27;25.20;47.80
20866;DHT22;10593;48.398;10.698;2022-07-04T00:29:53;25.20;48.00
20866;DHT22;10593;48.398;10.698;2022-07-04T00:32:19;25.20;48.10
20866;DHT22;10593;48.398;10.698;2022-07-04T00:34:45;25.20;48.10
20866;DHT22;10593;48.398;10.698;2022-07-04T00:37:10;25.10;48.10
20866;DHT22;10593;48.398;10.698;2022-07-04T00:39:36;25.10;48.40
20866;DHT22;10593;48.398;10.698;2022-07-04T00:42:02;25.10;48.40
20866;DHT22;10593;48.398;10.698;2022-07-04T00:44:29;25.10;48.40
20866;DHT22;10593;48.398;10.698;2022-07-04T00:46:56;25.00;48.40
20866;DHT22;10593;48.398;10.698;2022-07-04T00:49:21;25.00;48.30
20866;DHT22;10593;48.398;10.698;2022-07-04T00:51:47;25.00;48.50
20866;DHT22;10593;48.398;10.698;2022-07-04T00:54:16;25.00;48.50
20866;DHT22;10593;48.398;10.698;2022-07-04T00:56:44;25.00;48.80
20866;DHT22;10593;48.398;10.698;2022-07-04T00:59:10;25.00;48.70
20866;DHT22;10593;48.398;10.698;2022-07-04T01:01:37;24.90;48.70
20866;DHT22;10593;48.398;10.698;2022-07-04T01:04:04;24.90;48.90
20866;DHT22;10593;48.398;10.698;2022-07-04T01:06:31;24.90;48.90
20866;DHT22;10593;48.398;10.698;2022-07-04T01:08:59;24.90;49.10
20866;DHT22;10593;48.398;10.698;2022-07-04T01:11:25;24.80;49.20
20866;DHT22;10593;48.398;10.698;2022-07-04T01:13:54;24.80;49.40
20866;DHT22;10593;48.398;10.698;2022-07-04T01:16:19;24.80;49.60
20866;DHT22;10593;48.398;10.698;2022-07-04T01:18:45;24.80;49.60
20866;DHT22;10593;48.398;10.698;2022-07-04T01:21:11;24.70;49.60
20866;DHT22;10593;48.398;10.698;2022-07-04T01:23:38;24.70;49.70
20866;DHT22;10593;48.398;10.698;2022-07-04T01:26:05;24.70;49.80
20866;DHT22;10593;48.398;10.698;2022-07-04T01:28:31;24.70;49.90
20866;DHT22;10593;48.398;10.698;2022-07-04T01:30:57;24.70;49.90
20866;DHT22;10593;48.398;10.698;2022-07-04T01:33:23;24.60;50.10
20866;DHT22;10593;48.398;10.698;2022-07-04T01:35:48;24.60;50.20
20866;DHT22;10593;48.398;10.698;2022-07-04T01:38:14;24.60;50.50
20866;DHT22;10593;48.398;10.698;2022-07-04T01:40:40;24.60;50.70
20866;DHT22;10593;48.398;10.698;2022-07-04T01:43:06;24.60;50.90
20866;DHT22;10593;48.398;10.698;2022-07-04T01:45:32;24.60;50.90
20866;DHT22;10593;48.398;10.698;2022-07-04T01:48:00;24.60;51.00
20866;DHT22;10593;48.398;10.698;2022-07-04T01:50:26;24.60;50.90
20866;DHT22;10593;48.398;10.698;2022-07-04T01:52:52;24.60;50.80
20866;DHT22;10593;48.398;10.698;2022-07-04T01:55:18;24.60;51.00
20866;DHT22;10593;48.398;10.698;2022-07-04T01:57:44;24.60;50.90
20866;DHT22;10593;48.398;10.698;2022-07-04T02:00:10;24.60;50.90
20866;DHT22;10593;48.398;10.698;2022-07-04T02:02:55;24.50;50.90
20866;DHT22;10593;48.398;10.698;2022-07-04T02:05:21;24.50;50.90
20866;DHT22;10593;48.398;10.698;2022-07-04T02:07:48;24.50;50.90
20866;DHT22;10593;48.398;10.698;2022-07-04T02:10:14;24.50;50.90
20866;DHT22;10593;48.398;10.698;2022-07-04T02:12:40;24.50;50.90
20866;DHT22;10593;48.398;10.698;2022-07-04T02:15:24;24.50;50.90
20866;DHT22;10593;48.398;10.698;2022-07-04T02:17:51;24.40;50.80
20866;DHT22;10593;48.398;10.698;2022-07-04T02:20:17;24.40;50.80
20866;DHT22;10593;48.398;10.698;2022-07-04T02:22:43;24.40;50.90
20866;DHT22;10593;48.398;10.698;2022-07-04T02:25:09;24.40;51.20
20866;DHT22;10593;48.398;10.698;2022-07-04T02:27:37;24.30;51.30
20866;DHT22;10593;48.398;10.698;2022-07-04T02:30:05;24.30;51.30
20866;DHT22;10593;48.398;10.698;2022-07-04T02:32:31;24.30;51.40
20866;DHT22;10593;48.398;10.698;2022-07-04T02:34:57;24.30;51.40
20866;DHT22;10593;48.398;10.698;2022-07-04T02:37:23;24.30;51.50
20866;DHT22;10593;48.398;10.698;2022-07-04T02:39:49;24.30;51.70
20866;DHT22;10593;48.398;10.698;2022-07-04T02:42:14;24.20;51.70
20866;DHT22;10593;48.398;10.698;2022-07-04T02:44:40;24.20;51.70
20866;DHT22;10593;48.398;10.698;2022-07-04T02:47:07;24.20;51.70
20866;DHT22;10593;48.398;10.698;2022-07-04T02:49:32;24.20;51.70
20866;DHT22;10593;48.398;10.698;2022-07-04T02:51:58;24.20;51.80
20866;DHT22;10593;48.398;10.698;2022-07-04T02:54:24;24.20;51.80
20866;DHT22;10593;48.398;10.698;2022-07-04T02:56:49;24.20;51.30
20866;DHT22;10593;48.398;10.698;2022-07-04T02:59:15;24.20;50.80
20866;DHT22;10593;48.398;10.698;2022-07-04T03:01:41;24.20;50.70
20866;DHT22;10593;48.398;10.698;2022-07-04T03:04:06;24.10;50.70
20866;DHT22;10593;48.398;10.698;2022-07-04T03:06:32;24.10;50.80
20866;DHT22;10593;48.398;10.698;2022-07-04T03:08:58;24.10;50.90
20866;DHT22;10593;48.398;10.698;2022-07-04T03:11:23;24.00;51.00
20866;DHT22;10593;48.398;10.698;2022-07-04T03:13:49;24.00;51.20
20866;DHT22;10593;48.398;10.698;2022-07-04T03:16:15;24.00;51.40
20866;DHT22;10593;48.398;10.698;2022-07-04T03:18:40;23.90;51.60
20866;DHT22;10593;48.398;10.698;2022-07-04T03:21:06;23.90;51.80
20866;DHT22;10593;48.398;10.698;2022-07-04T03:23:33;23.90;51.80
20866;DHT22;10593;48.398;10.698;2022-07-04T03:26:00;23.90;52.00
20866;DHT22;10593;48.398;10.698;2022-07-04T03:28:26;23.80;52.10
20866;DHT22;10593;48.398;10.698;2022-07-04T03:30:53;23.80;52.20
20866;DHT22;10593;48.398;10.698;2022-07-04T03:33:19;23.80;52.20
20866;DHT22;10593;48.398;10.698;2022-07-04T03:35:45;23.80;52.40
20866;DHT22;10593;48.398;10.698;2022-07-04T03:38:11;23.80;52.40
20866;DHT22;10593;48.398;10.698;2022-07-04T03:40:37;23.80;52.50
20866;DHT22;10593;48.398;10.698;2022-07-04T03:43:04;23.80;52.60
20866;DHT22;10593;48.398;10.698;2022-07-04T03:45:33;23.80;52.60
20866;DHT22;10593;48.398;10.698;2022-07-04T03:47:59;23.80;52.70
20866;DHT22;10593;48.398;10.698;2022-07-04T03:50:28;23.80;53.10
20866;DHT22;10593;48.398;10.698;2022-07-04T03:52:53;23.80;53.20
20866;DHT22;10593;48.398;10.698;2022-07-04T03:55:19;23.80;53.20
20866;DHT22;10593;48.398;10.698;2022-07-04T03:57:45;23.70;53.40
20866;DHT22;10593;48.398;10.698;2022-07-04T04:00:11;23.70;53.40
20866;DHT22;10593;48.398;10.698;2022-07-04T04:02:38;23.70;53.60
20866;DHT22;10593;48.398;10.698;2022-07-04T04:05:04;23.70;54.10
20866;DHT22;10593;48.398;10.698;2022-07-04T04:07:49;23.70;54.30
20866;DHT22;10593;48.398;10.698;2022-07-04T04:10:15;23.60;54.30
20866;DHT22;10593;48.398;10.698;2022-07-04T04:12:41;23.60;54.50
20866;DHT22;10593;48.398;10.698;2022-07-04T04:15:07;23.60;54.70
20866;DHT22;10593;48.398;10.698;2022-07-04T04:17:33;23.60;55.00
20866;DHT22;10593;48.398;10.698;2022-07-04T04:19:59;23.50;55.10
20866;DHT22;10593;48.398;10.698;2022-07-04T04:22:27;23.50;55.30
20866;DHT22;10593;48.398;10.698;2022-07-04T04:24:53;23.50;55.40
20866;DHT22;10593;48.398;10.698;2022-07-04T04:27:19;23.50;55.70
20866;DHT22;10593;48.398;10.698;2022-07-04T04:29:44;23.50;55.80
20866;DHT22;10593;48.398;10.698;2022-07-04T04:32:10;23.50;56.10
20866;DHT22;10593;48.398;10.698;2022-07-04T04:34:35;23.60;56.30
20866;DHT22;10593;48.398;10.698;2022-07-04T04:37:01;23.60;56.40
20866;DHT22;10593;48.398;10.698;2022-07-04T04:39:27;23.60;56.70
20866;DHT22;10593;48.398;10.698;2022-07-04T04:41:53;23.60;56.80
20866;DHT22;10593;48.398;10.698;2022-07-04T04:44:18;23.60;57.00
20866;DHT22;10593;48.398;10.698;2022-07-04T04:46:45;23.70;57.20
20866;DHT22;10593;48.398;10.698;2022-07-04T04:49:11;23.70;57.20
20866;DHT22;10593;48.398;10.698;2022-07-04T04:51:36;23.70;57.30
20866;DHT22;10593;48.398;10.698;2022-07-04T04:54:03;23.70;57.50
20866;DHT22;10593;48.398;10.698;2022-07-04T04:56:29;23.80;57.60
20866;DHT22;10593;48.398;10.698;2022-07-04T04:58:55;23.80;57.70
20866;DHT22;10593;48.398;10.698;2022-07-04T05:01:21;23.90;57.90
20866;DHT22;10593;48.398;10.698;2022-07-04T05:03:46;23.90;57.80
20866;DHT22;10593;48.398;10.698;2022-07-04T05:06:12;23.90;57.80
20866;DHT22;10593;48.398;10.698;2022-07-04T05:08:38;23.90;57.80
20866;DHT22;10593;48.398;10.698;2022-07-04T05:11:04;24.00;58.00
20866;DHT22;10593;48.398;10.698;2022-07-04T05:13:30;24.00;57.90
20866;DHT22;10593;48.398;10.698;2022-07-04T05:15:57;24.00;58.00
20866;DHT22;10593;48.398;10.698;2022-07-04T05:18:23;24.00;57.90
20866;DHT22;10593;48.398;10.698;2022-07-04T05:20:48;24.00;57.80
20866;DHT22;10593;48.398;10.698;2022-07-04T05:23:14;24.10;58.00
20866;DHT22;10593;48.398;10.698;2022-07-04T05:25:40;24.10;58.00
20866;DHT22;10593;48.398;10.698;2022-07-04T05:28:05;24.10;58.10
20866;DHT22;10593;48.398;10.698;2022-07-04T05:30:34;24.10;58.10
20866;DHT22;10593;48.398;10.698;2022-07-04T05:32:59;24.10;58.10
20866;DHT22;10593;48.398;10.698;2022-07-04T05:35:27;24.10;58.00
20866;DHT22;10593;48.398;10.698;2022-07-04T05:37:53;24.10;58.10
20866;DHT22;10593;48.398;10.698;2022-07-04T05:40:19;24.10;58.20
20866;DHT22;10593;48.398;10.698;2022-07-04T05:42:50;24.10;58.00
20866;DHT22;10593;48.398;10.698;2022-07-04T05:45:16;24.20;58.10
20866;DHT22;10593;48.398;10.698;2022-07-04T05:47:41;24.10;58.30
20866;DHT22;10593;48.398;10.698;2022-07-04T05:50:08;24.20;58.50
20866;DHT22;10593;48.398;10.698;2022-07-04T05:52:35;24.20;58.50
20866;DHT22;10593;48.398;10.698;2022-07-04T05:55:00;24.20;58.40
20866;DHT22;10593;48.398;10.698;2022-07-04T05:57:26;24.20;58.30
20866;DHT22;10593;48.398;10.698;2022-07-04T05:59:52;24.20;58.30
20866;DHT22;10593;48.398;10.698;2022-07-04T06:02:18;24.20;58.10
20866;DHT22;10593;48.398;10.698;2022-07-04T06:04:44;24.20;57.90
20866;DHT22;10593;48.398;10.698;2022-07-04T06:07:10;24.20;57.60
20866;DHT22;10593;48.398;10.698;2022-07-04T06:09:35;24.20;57.60
20866;DHT22;10593;48.398;10.698;2022-07-04T06:12:02;24.20;57.40
20866;DHT22;10593;48.398;10.698;2022-07-04T06:14:31;24.20;57.30
20866;DHT22;10593;48.398;10.698;2022-07-04T06:16:57;24.20;58.10
20866;DHT22;10593;48.398;10.698;2022-07-04T06:19:23;24.20;57.40
20866;DHT22;10593;48.398;10.698;2022-07-04T06:21:49;24.20;57.40
20866;DHT22;10593;48.398;10.698;2022-07-04T06:24:15;24.20;57.50
20866;DHT22;10593;48.398;10.698;2022-07-04T06:26:41;24.20;57.40
20866;DHT22;10593;48.398;10.698;2022-07-04T06:29:06;24.20;57.50
20866;DHT22;10593;48.398;10.698;2022-07-04T06:31:33;24.20;57.50
20866;DHT22;10593;48.398;10.698;2022-07-04T06:33:59;24.20;57.40
20866;DHT22;10593;48.398;10.698;2022-07-04T06:36:44;24.20;57.40
20866;DHT22;10593;48.398;10.698;2022-07-04T06:39:10;24.20;57.50
20866;DHT22;10593;48.398;10.698;2022-07-04T06:41:36;24.20;57.50
20866;DHT22;10593;48.398;10.698;2022-07-04T06:44:02;24.30;57.40
20866;DHT22;10593;48.398;10.698;2022-07-04T06:46:29;24.30;57.20
20866;DHT22;10593;48.398;10.698;2022-07-04T06:48:54;24.30;57.20
20866;DHT22;10593;48.398;10.698;2022-07-04T06:51:21;24.30;57.00
20866;DHT22;10593;48.398;10.698;2022-07-04T06:53:47;24.40;56.90
20866;DHT22;10593;48.398;10.698;2022-07-04T06:56:13;24.40;56.60
20866;DHT22;10593;48.398;10.698;2022-07-04T06:58:39;24.40;56.20
20866;DHT22;10593;48.398;10.698;2022-07-04T07:01:04;24.40;56.10
20866;DHT22;10593;48.398;10.698;2022-07-04T07:03:30;24.40;56.10
20866;DHT22;10593;48.398;10.698;2022-07-04T07:05:56;24.40;56.00
20866;DHT22;10593;48.398;10.698;2022-07-04T07:08:22;24.40;56.00
20866;DHT22;10593;48.398;10.698;2022-07-04T07:10:48;24.40;55.80
20866;DHT22;10593;48.398;10.698;2022-07-04T07:13:14;24.40;55.70
20866;DHT22;10593;48.398;10.698;2022-07-04T07:15:40;24.40;55.60
20866;DHT22;10593;48.398;10.698;2022-07-04T07:18:06;24.40;55.70
20866;DHT22;10593;48.398;10.698;2022-07-04T07:20:32;24.40;55.70
20866;DHT22;10593;48.398;10.698;2022-07-04T07:22:58;24.40;55.80
20866;DHT22;10593;48.398;10.698;2022-07-04T07:25:27;24.40;55.80
20866;DHT22;10593;48.398;10.698;2022-07-04T07:27:53;24.40;55.70
20866;DHT22;10593;48.398;10.698;2022-07-04T07:30:19;24.40;55.70
20866;DHT22;10593;48.398;10.698;2022-07-04T07:32:45;24.40;55.60
20866;DHT22;10593;48.398;10.698;2022-07-04T07:35:11;24.40;55.90
20866;DHT22;10593;48.398;10.698;2022-07-04T07:37:37;24.40;56.40
20866;DHT22;10593;48.398;10.698;2022-07-04T07:40:03;24.40;55.70
20866;DHT22;10593;48.398;10.698;2022-07-04T07:42:29;24.40;55.60
20866;DHT22;10593;48.398;10.698;2022-07-04T07:44:55;24.40;55.50
20866;DHT22;10593;48.398;10.698;2022-07-04T07:47:22;24.40;55.50
20866;DHT22;10593;48.398;10.698;2022-07-04T07:49:48;24.40;55.60
20866;DHT22;10593;48.398;10.698;2022-07-04T07:52:14;24.50;55.50
20866;DHT22;10593;48.398;10.698;2022-07-04T07:54:41;24.50;55.50
20866;DHT22;10593;48.398;10.698;2022-07-04T07:57:06;24.50;55.50
20866;DHT22;10593;48.398;10.698;2022-07-04T07:59:32;24.50;55.30
20866;DHT22;10593;48.398;10.698;2022-07-04T08:01:57;24.50;55.20
20866;DHT22;10593;48.398;10.698;2022-07-04T08:04:23;24.50;55.20
20866;DHT22;10593;48.398;10.698;2022-07-04T08:07:06;24.60;55.30
20866;DHT22;10593;48.398;10.698;2022-07-04T08:09:36;24.60;55.60
20866;DHT22;10593;48.398;10.698;2022-07-04T08:12:03;24.70;55.70
20866;DHT22;10593;48.398;10.698;2022-07-04T08:14:30;24.80;55.30
20866;DHT22;10593;48.398;10.698;2022-07-04T08:16:58;24.80;54.80
20866;DHT22;10593;48.398;10.698;2022-07-04T08:19:26;24.90;54.40
20866;DHT22;10593;48.398;10.698;2022-07-04T08:21:52;25.10;54.60
20866;DHT22;10593;48.398;10.698;2022-07-04T08:24:19;25.10;54.40
20866;DHT22;10593;48.398;10.698;2022-07-04T08:26:45;25.20;53.80
20866;DHT22;10593;48.398;10.698;2022-07-04T08:29:13;25.30;53.80
20866;DHT22;10593;48.398;10.698;2022-07-04T08:31:39;25.40;53.50
20866;DHT22;10593;48.398;10.698;2022-07-04T08:34:05;25.50;53.50
20866;DHT22;10593;48.398;10.698;2022-07-04T08:36:30;25.60;53.10
20866;DHT22;10593;48.398;10.698;2022-07-04T08:38:56;25.70;52.90
20866;DHT22;10593;48.398;10.698;2022-07-04T08:41:21;25.70;52.40
20866;DHT22;10593;48.398;10.698;2022-07-04T08:43:47;25.80;52.70
20866;DHT22;10593;48.398;10.698;2022-07-04T08:46:15;25.90;52.40
20866;DHT22;10593;48.398;10.698;2022-07-04T08:48:50;26.00;51.90
20866;DHT22;10593;48.398;10.698;2022-07-04T08:51:43;26.00;51.20
20866;DHT22;10593;48.398;10.698;2022-07-04T08:54:13;26.10;51.50
20866;DHT22;10593;48.398;10.698;2022-07-04T08:56:58;26.10;51.60
20866;DHT22;10593;48.398;10.698;2022-07-04T08:59:42;26.20;51.70
20866;DHT22;10593;48.398;10.698;2022-07-04T09:02:14;26.30;51.40
20866;DHT22;10593;48.398;10.698;2022-07-04T09:04:43;26.30;51.20
20866;DHT22;10593;48.398;10.698;2022-07-04T09:07:11;26.40;51.00
20866;DHT22;10593;48.398;10.698;2022-07-04T09:09:39;26.50;51.00
20866;DHT22;10593;48.398;10.698;2022-07-04T09:12:07;26.50;51.00
20866;DHT22;10593;48.398;10.698;2022-07-04T09:14:34;26.60;50.70
20866;DHT22;10593;48.398;10.698;2022-07-04T09:17:00;26.70;50.80
20866;DHT22;10593;48.398;10.698;2022-07-04T09:19:26;26.70;50.50
20866;DHT22;10593;48.398;10.698;2022-07-04T09:21:51;26.70;50.00
20866;DHT22;10593;48.398;10.698;2022-07-04T09:24:40;26.80;49.70
20866;DHT22;10593;48.398;10.698;2022-07-04T09:27:09;26.80;49.40
20866;DHT22;10593;48.398;10.698;2022-07-04T09:29:51;26.90;49.40
20866;DHT22;10593;48.398;10.698;2022-07-04T09:35:04;26.90;48.40
20866;DHT22;10593;48.398;10.698;2022-07-04T09:37:49;26.90;48.30
20866;DHT22;10593;48.398;10.698;2022-07-04T09:43:20;26.90;48.20
20866;DHT22;10593;48.398;10.698;2022-07-04T09:45:57;26.90;47.80
20866;DHT22;10593;48.398;10.698;2022-07-04T09:48:25;27.00;47.40
20866;DHT22;10593;48.398;10.698;2022-07-04T09:50:51;27.00;47.50
20866;DHT22;10593;48.398;10.698;2022-07-04T09:53:17;27.00;47.40
20866;DHT22;10593;48.398;10.698;2022-07-04T09:55:43;27.00;47.20
20866;DHT22;10593;48.398;10.698;2022-07-04T09:58:12;27.10;46.90
20866;DHT22;10593;48.398;10.698;2022-07-04T10:00:42;27.20;47.00
20866;DHT22;10593;48.398;10.698;2022-07-04T10:03:26;27.20;46.70
20866;DHT22;10593;48.398;10.698;2022-07-04T10:06:13;27.10;46.80
20866;DHT22;10593;48.398;10.698;2022-07-04T10:08:42;27.20;46.90
20866;DHT22;10593;48.398;10.698;2022-07-04T10:11:11;27.20;47.00
20866;DHT22;10593;48.398;10.698;2022-07-04T10:13:38;27.20;46.70
20866;DHT22;10593;48.398;10.698;2022-07-04T10:16:04;27.20;46.80
20866;DHT22;10593;48.398;10.698;2022-07-04T10:18:30;27.20;46.80
20866;DHT22;10593;48.398;10.698;2022-07-04T10:20:56;27.20;46.80
20866;DHT22;10593;48.398;10.698;2022-07-04T10:23:23;27.30;47.00
20866;DHT22;10593;48.398;10.698;2022-07-04T10:25:56;27.30;46.60
20866;DHT22;10593;48.398;10.698;2022-07-04T10:28:22;27.30;46.20
20866;DHT22;10593;48.398;10.698;2022-07-04T10:30:56;27.30;46.30
20866;DHT22;10593;48.398;10.698;2022-07-04T10:33:24;27.30;45.80
20866;DHT22;10593;48.398;10.698;2022-07-04T10:36:37;27.30;45.80
20866;DHT22;10593;48.398;10.698;2022-07-04T10:38:51;27.30;45.70
20866;DHT22;10593;48.398;10.698;2022-07-04T10:41:22;27.30;45.60
20866;DHT22;10593;48.398;10.698;2022-07-04T10:46:45;27.30;45.30
20866;DHT22;10593;48.398;10.698;2022-07-04T10:51:46;27.30;46.00
20866;DHT22;10593;48.398;10.698;2022-07-04T10:54:22;27.30;46.00
20866;DHT22;10593;48.398;10.698;2022-07-04T10:57:13;27.30;46.20
20866;DHT22;10593;48.398;10.698;2022-07-04T11:02:35;27.30;46.10
20866;DHT22;10593;48.398;10.698;2022-07-04T11:18:12;27.40;45.40
20866;DHT22;10593;48.398;10.698;2022-07-04T11:20:44;27.40;45.10
20866;DHT22;10593;48.398;10.698;2022-07-04T11:23:17;27.40;45.00
20866;DHT22;10593;48.398;10.698;2022-07-04T11:25:48;27.40;45.40
20866;DHT22;10593;48.398;10.698;2022-07-04T11:30:52;27.40;45.00
20866;DHT22;10593;48.398;10.698;2022-07-04T11:33:21;27.50;45.10
20866;DHT22;10593;48.398;10.698;2022-07-04T11:36:20;27.50;44.80
20866;DHT22;10593;48.398;10.698;2022-07-04T11:39:09;27.60;44.80
20866;DHT22;10593;48.398;10.698;2022-07-04T11:41:39;27.70;44.70
20866;DHT22;10593;48.398;10.698;2022-07-04T11:44:27;27.70;44.50
20866;DHT22;10593;48.398;10.698;2022-07-04T11:47:23;27.70;44.10
20866;DHT22;10593;48.398;10.698;2022-07-04T11:49:56;27.80;44.20
20866;DHT22;10593;48.398;10.698;2022-07-04T11:52:27;27.80;44.00
20866;DHT22;10593;48.398;10.698;2022-07-04T11:54:55;27.80;43.50
20866;DHT22;10593;48.398;10.698;2022-07-04T11:57:26;27.90;43.60
20866;DHT22;10593;48.398;10.698;2022-07-04T12:00:06;28.00;43.60
20866;DHT22;10593;48.398;10.698;2022-07-04T12:02:36;28.00;43.30
20866;DHT22;10593;48.398;10.698;2022-07-04T12:05:05;28.00;43.60
20866;DHT22;10593;48.398;10.698;2022-07-04T12:07:35;28.10;43.30
20866;DHT22;10593;48.398;10.698;2022-07-04T12:10:24;28.10;43.70
20866;DHT22;10593;48.398;10.698;2022-07-04T12:13:07;28.20;43.10
20866;DHT22;10593;48.398;10.698;2022-07-04T12:15:41;28.20;42.90
20866;DHT22;10593;48.398;10.698;2022-07-04T12:18:25;28.20;43.20
20866;DHT22;10593;48.398;10.698;2022-07-04T12:21:11;28.20;42.90
20866;DHT22;10593;48.398;10.698;2022-07-04T12:23:41;28.20;42.50
20866;DHT22;10593;48.398;10.698;2022-07-04T12:26:07;28.20;43.10
20866;DHT22;10593;48.398;10.698;2022-07-04T12:28:35;28.20;42.80
20866;DHT22;10593;48.398;10.698;2022-07-04T12:31:01;28.20;43.00
20866;DHT22;10593;48.398;10.698;2022-07-04T12:33:30;28.20;42.70
20866;DHT22;10593;48.398;10.698;2022-07-04T12:38:38;28.20;43.00
20866;DHT22;10593;48.398;10.698;2022-07-04T12:41:14;28.20;42.90
20866;DHT22;10593;48.398;10.698;2022-07-04T12:43:47;28.30;43.20
20866;DHT22;10593;48.398;10.698;2022-07-04T12:46:31;28.30;43.20
20866;DHT22;10593;48.398;10.698;2022-07-04T12:49:00;28.30;42.70
20866;DHT22;10593;48.398;10.698;2022-07-04T12:51:32;28.40;42.70
20866;DHT22;10593;48.398;10.698;2022-07-04T12:54:06;28.40;42.50
20866;DHT22;10593;48.398;10.698;2022-07-04T12:56:38;28.40;42.00
20866;DHT22;10593;48.398;10.698;2022-07-04T12:59:13;28.50;42.20
20866;DHT22;10593;48.398;10.698;2022-07-04T13:01:42;28.50;41.90
20866;DHT22;10593;48.398;10.698;2022-07-04T13:04:09;28.50;42.20
20866;DHT22;10593;48.398;10.698;2022-07-04T13:06:35;28.50;42.00
20866;DHT22;10593;48.398;10.698;2022-07-04T13:09:03;28.50;41.50
20866;DHT22;10593;48.398;10.698;2022-07-04T13:11:30;28.50;41.50
20866;DHT22;10593;48.398;10.698;2022-07-04T13:14:14;28.50;41.50
20866;DHT22;10593;48.398;10.698;2022-07-04T13:16:40;28.60;41.60
20866;DHT22;10593;48.398;10.698;2022-07-04T13:19:05;28.60;41.70
20866;DHT22;10593;48.398;10.698;2022-07-04T13:21:31;28.60;41.40
20866;DHT22;10593;48.398;10.698;2022-07-04T13:23:57;28.60;41.40
20866;DHT22;10593;48.398;10.698;2022-07-04T13:26:22;28.70;41.50
20866;DHT22;10593;48.398;10.698;2022-07-04T13:28:48;28.70;41.30
20866;DHT22;10593;48.398;10.698;2022-07-04T13:31:14;28.70;41.10
20866;DHT22;10593;48.398;10.698;2022-07-04T13:33:40;28.70;41.10
20866;DHT22;10593;48.398;10.698;2022-07-04T13:36:06;28.80;41.30
20866;DHT22;10593;48.398;10.698;2022-07-04T13:38:31;28.80;41.10
20866;DHT22;10593;48.398;10.698;2022-07-04T13:40:57;28.80;41.00
20866;DHT22;10593;48.398;10.698;2022-07-04T13:43:28;28.80;40.90
20866;DHT22;10593;48.398;10.698;2022-07-04T13:45:55;28.80;40.20
20866;DHT22;10593;48.398;10.698;2022-07-04T13:48:22;28.80;40.50
20866;DHT22;10593;48.398;10.698;2022-07-04T13:50:48;28.80;40.50
20866;DHT22;10593;48.398;10.698;2022-07-04T13:53:13;28.80;40.10
20866;DHT22;10593;48.398;10.698;2022-07-04T13:55:39;28.80;40.10
20866;DHT22;10593;48.398;10.698;2022-07-04T13:58:06;28.80;40.20
20866;DHT22;10593;48.398;10.698;2022-07-04T14:00:34;28.80;40.30
20866;DHT22;10593;48.398;10.698;2022-07-04T14:03:01;28.80;40.00
20866;DHT22;10593;48.398;10.698;2022-07-04T14:05:27;28.80;39.90
20866;DHT22;10593;48.398;10.698;2022-07-04T14:07:53;28.80;39.90
20866;DHT22;10593;48.398;10.698;2022-07-04T14:10:19;28.80;40.00
20866;DHT22;10593;48.398;10.698;2022-07-04T14:12:45;28.80;39.90
20866;DHT22;10593;48.398;10.698;2022-07-04T14:15:11;28.80;40.10
20866;DHT22;10593;48.398;10.698;2022-07-04T14:17:38;28.80;40.40
20866;DHT22;10593;48.398;10.698;2022-07-04T14:20:06;28.80;40.40
20866;DHT22;10593;48.398;10.698;2022-07-04T14:22:34;28.80;40.20
20866;DHT22;10593;48.398;10.698;2022-07-04T14:25:00;28.80;40.20
20866;DHT22;10593;48.398;10.698;2022-07-04T14:27:26;28.80;40.20
20866;DHT22;10593;48.398;10.698;2022-07-04T14:29:52;28.80;40.20
20866;DHT22;10593;48.398;10.698;2022-07-04T14:32:17;28.80;40.30
20866;DHT22;10593;48.398;10.698;2022-07-04T14:34:44;28.80;40.50
20866;DHT22;10593;48.398;10.698;2022-07-04T14:37:09;28.80;40.60
20866;DHT22;10593;48.398;10.698;2022-07-04T14:39:35;28.80;40.90
20866;DHT22;10593;48.398;10.698;2022-07-04T14:42:01;28.80;40.90
20866;DHT22;10593;48.398;10.698;2022-07-04T14:44:26;28.80;40.90
20866;DHT22;10593;48.398;10.698;2022-07-04T14:46:52;28.70;41.10
20866;DHT22;10593;48.398;10.698;2022-07-04T14:49:19;28.70;41.50
20866;DHT22;10593;48.398;10.698;2022-07-04T14:51:44;28.70;41.30
20866;DHT22;10593;48.398;10.698;2022-07-04T14:54:10;28.60;41.30
20866;DHT22;10593;48.398;10.698;2022-07-04T14:56:37;28.60;41.20
20866;DHT22;10593;48.398;10.698;2022-07-04T14:59:03;28.60;41.60
20866;DHT22;10593;48.398;10.698;2022-07-04T15:01:30;28.60;41.40
20866;DHT22;10593;48.398;10.698;2022-07-04T15:03:56;28.60;41.40
20866;DHT22;10593;48.398;10.698;2022-07-04T15:06:22;28.50;41.50
20866;DHT22;10593;48.398;10.698;2022-07-04T15:08:48;28.50;41.90
20866;DHT22;10593;48.398;10.698;2022-07-04T15:11:14;28.50;42.00
20866;DHT22;10593;48.398;10.698;2022-07-04T15:13:39;28.50;41.60
20866;DHT22;10593;48.398;10.698;2022-07-04T15:16:05;28.50;41.60
20866;DHT22;10593;48.398;10.698;2022-07-04T15:18:31;28.50;41.50
20866;DHT22;10593;48.398;10.698;2022-07-04T15:20:57;28.40;41.50
20866;DHT22;10593;48.398;10.698;2022-07-04T15:23:41;28.50;41.50
20866;DHT22;10593;48.398;10.698;2022-07-04T15:26:26;28.50;41.50
20866;DHT22;10593;48.398;10.698;2022-07-04T15:28:52;28.50;41.50
20866;DHT22;10593;48.398;10.698;2022-07-04T15:31:18;28.50;41.40
20866;DHT22;10593;48.398;10.698;2022-07-04T15:33:43;28.50;41.40
20866;DHT22;10593;48.398;10.698;2022-07-04T15:36:09;28.40;41.50
20866;DHT22;10593;48.398;10.698;2022-07-04T15:38:35;28.40;42.00
20866;DHT22;10593;48.398;10.698;2022-07-04T15:41:00;28.40;42.00
20866;DHT22;10593;48.398;10.698;2022-07-04T15:43:28;28.40;42.20
20866;DHT22;10593;48.398;10.698;2022-07-04T15:45:55;28.40;42.40
20866;DHT22;10593;48.398;10.698;2022-07-04T15:48:21;28.40;42.40
20866;DHT22;10593;48.398;10.698;2022-07-04T15:50:47;28.40;42.30
20866;DHT22;10593;48.398;10.698;2022-07-04T15:53:14;28.40;42.30